Time;durP1;ratioP1;P1;durP2;ratioP2;P2;SDS_P1;SDS_P2;PMS_P1;PMS_P2;Temp;Humidity;BMP_temperature;BMP_pressure;BME280_temperature;BME280_humidity;BME280_pressure;Samples;Min_cycle;Max_cycle;Signal;HPM_P1;HPM_P2
2024/02/18 00:02:01;;;;;;;;;;;5.90;99.90;;;;;;4925584;29;19922;-75
2024/02/18 00:04:31;;;;;;;;;;;6.10;99.90;;;;;;4937577;29;19965;-76
2024/02/18 00:07:01;;;;;;;;;;;6.10;99.90;;;;;;4921914;29;19930;-76
2024/02/18 00:09:32;;;;;;;;;;;6.20;99.90;;;;;;4915382;29;19930;-76
2024/02/18 00:12:01;;;;;;;;;;;6.10;99.90;;;;;;4937776;29;19945;-76
2024/02/18 00:14:31;;;;;;;;;;;6.00;99.90;;;;;;4938864;29;19929;-76
2024/02/18 00:17:01;;;;;;;;;;;6.00;99.90;;;;;;4914119;29;19922;-76
2024/02/18 00:19:30;;;;;;;;;;;5.90;99.90;;;;;;4921295;29;20340;-76
2024/02/18 00:21:59;;;;;;;;;;;5.80;99.90;;;;;;4917651;29;19950;-76
2024/02/18 00:24:27;;;;;;;;;;;5.70;99.90;;;;;;4943949;29;19922;-77
2024/02/18 00:26:56;;;;;;;;;;;5.60;99.90;;;;;;4924683;29;19978;-76
2024/02/18 00:29:27;;;;;;;;;;;5.60;99.90;;;;;;4939475;29;20372;-76
2024/02/18 00:31:58;;;;;;;;;;;5.60;99.90;;;;;;4935773;29;19931;-77
2024/02/18 00:34:30;;;;;;;;;;;5.50;99.90;;;;;;4923965;29;19948;-77
2024/02/18 00:37:02;;;;;;;;;;;5.50;99.90;;;;;;4937467;29;19986;-77
2024/02/18 00:39:31;;;;;;;;;;;5.40;99.90;;;;;;4919890;29;19922;-77
2024/02/18 00:41:59;;;;;;;;;;;5.40;99.90;;;;;;4915521;29;19963;-77
2024/02/18 00:44:28;;;;;;;;;;;5.40;99.90;;;;;;4919699;29;19923;-77
2024/02/18 00:47:00;;;;;;;;;;;5.30;99.90;;;;;;4920243;29;20003;-77
2024/02/18 00:49:34;;;;;;;;;;;5.30;99.90;;;;;;4935421;29;20388;-76
2024/02/18 00:52:03;;;;;;;;;;;5.30;99.90;;;;;;4939730;29;19930;-76
2024/02/18 00:54:32;;;;;;;;;;;5.30;99.90;;;;;;4936488;29;20384;-77
2024/02/18 00:57:02;;;;;;;;;;;5.30;99.90;;;;;;4922340;29;19922;-77
2024/02/18 00:59:31;;;;;;;;;;;5.30;99.90;;;;;;4925187;29;19978;-76
2024/02/18 01:02:02;;;;;;;;;;;5.20;99.90;;;;;;4941870;29;20293;-76
2024/02/18 01:04:31;;;;;;;;;;;5.20;99.90;;;;;;4920195;29;19929;-76
2024/02/18 01:06:59;;;;;;;;;;;5.20;99.90;;;;;;4919132;29;19962;-76
2024/02/18 01:09:30;;;;;;;;;;;5.10;99.90;;;;;;4901983;29;19935;-76
2024/02/18 01:11:59;;;;;;;;;;;5.10;99.90;;;;;;4918233;29;19934;-76
2024/02/18 01:14:28;;;;;;;;;;;5.10;99.90;;;;;;4901079;29;19934;-76
2024/02/18 01:16:58;;;;;;;;;;;5.10;99.90;;;;;;4920948;29;19962;-76
2024/02/18 01:19:29;;;;;;;;;;;5.00;99.90;;;;;;4911837;29;19927;-76
2024/02/18 01:21:59;;;;;;;;;;;5.00;99.90;;;;;;4916833;29;19951;-76
2024/02/18 01:24:28;;;;;;;;;;;5.00;99.90;;;;;;4917223;29;19923;-76
2024/02/18 01:26:57;;;;;;;;;;;5.00;99.90;;;;;;4916435;29;19927;-76
2024/02/18 01:29:28;;;;;;;;;;;4.90;99.90;;;;;;4895981;29;19931;-76
2024/02/18 01:31:57;;;;;;;;;;;4.90;99.90;;;;;;4906588;29;19928;-76
2024/02/18 01:34:26;;;;;;;;;;;4.90;99.90;;;;;;4914911;29;19923;-76
2024/02/18 01:36:56;;;;;;;;;;;4.90;99.90;;;;;;4916965;29;19923;-76
2024/02/18 01:39:25;;;;;;;;;;;4.90;99.90;;;;;;4912135;29;19929;-76
2024/02/18 01:41:55;;;;;;;;;;;4.90;99.90;;;;;;4913810;29;19965;-76
2024/02/18 01:44:27;;;;;;;;;;;4.80;99.90;;;;;;4922041;29;19954;-76
2024/02/18 01:46:58;;;;;;;;;;;4.80;99.90;;;;;;4934967;29;19926;-76
2024/02/18 01:49:30;;;;;;;;;;;4.80;99.90;;;;;;4938455;29;19927;-76
2024/02/18 01:52:00;;;;;;;;;;;4.80;99.90;;;;;;4922585;29;19923;-76
2024/02/18 01:54:33;;;;;;;;;;;4.70;99.90;;;;;;4922516;29;19982;-76
2024/02/18 01:57:03;;;;;;;;;;;4.70;99.90;;;;;;4935886;29;20352;-76
2024/02/18 01:59:33;;;;;;;;;;;4.70;99.90;;;;;;4923618;29;19947;-77
2024/02/18 02:02:05;;;;;;;;;;;4.60;99.90;;;;;;4937777;29;19978;-76
2024/02/18 02:04:34;;;;;;;;;;;4.60;99.90;;;;;;4937782;29;20013;-76
2024/02/18 02:07:04;;;;;;;;;;;4.60;99.90;;;;;;4923069;29;20009;-76
2024/02/18 02:09:40;;;;;;;;;;;4.60;99.90;;;;;;4937104;29;19982;-76
2024/02/18 02:12:09;;;;;;;;;;;4.60;99.90;;;;;;4917121;29;19986;-76
2024/02/18 02:14:40;;;;;;;;;;;3.20;99.90;;;;;;4900639;29;20022;-77
2024/02/18 02:17:10;;;;;;;;;;;4.50;99.90;;;;;;4885147;29;19927;-76
2024/02/18 02:19:39;;;;;;;;;;;4.50;99.90;;;;;;4883090;29;20030;-76
2024/02/18 02:22:10;;;;;;;;;;;4.50;99.90;;;;;;4881897;29;20369;-76
2024/02/18 02:24:41;;;;;;;;;;;4.50;99.90;;;;;;4882295;29;19924;-76
2024/02/18 02:27:12;;;;;;;;;;;4.50;99.90;;;;;;4882601;29;19924;-76
2024/02/18 02:29:44;;;;;;;;;;;4.50;99.90;;;;;;4880038;29;19934;-76
2024/02/18 02:32:12;;;;;;;;;;;4.50;99.90;;;;;;4879848;29;20351;-77
2024/02/18 02:34:41;;;;;;;;;;;4.50;99.90;;;;;;4882994;29;19924;-76
2024/02/18 02:37:09;;;;;;;;;;;4.50;99.90;;;;;;4867557;29;19985;-76
2024/02/18 02:39:40;;;;;;;;;;;4.50;99.90;;;;;;4881465;29;19924;-77
2024/02/18 02:42:09;;;;;;;;;;;4.40;99.90;;;;;;4883251;29;19998;-77
2024/02/18 02:44:39;;;;;;;;;;;4.40;99.90;;;;;;4896748;29;19927;-76
2024/02/18 02:47:09;;;;;;;;;;;4.40;99.90;;;;;;4898307;29;19934;-76
2024/02/18 02:49:37;;;;;;;;;;;4.40;99.90;;;;;;4922448;29;19926;-76
2024/02/18 02:52:09;;;;;;;;;;;4.50;99.90;;;;;;4919314;29;19929;-77
2024/02/18 02:54:39;;;;;;;;;;;4.50;99.90;;;;;;4917804;29;19923;-76
2024/02/18 02:57:08;;;;;;;;;;;4.50;99.90;;;;;;4922349;29;19932;-76
2024/02/18 02:59:38;;;;;;;;;;;4.50;99.90;;;;;;4932677;29;20396;-76
2024/02/18 03:02:08;;;;;;;;;;;4.40;99.90;;;;;;4936420;29;19951;-76
2024/02/18 03:04:39;;;;;;;;;;;4.40;99.90;;;;;;4918858;29;19971;-76
2024/02/18 03:07:09;;;;;;;;;;;4.40;99.90;;;;;;4939534;29;19934;-76
2024/02/18 03:09:38;;;;;;;;;;;4.40;99.90;;;;;;4941029;29;20324;-76
2024/02/18 03:12:10;;;;;;;;;;;4.40;99.90;;;;;;4936529;29;19923;-76
2024/02/18 03:14:41;;;;;;;;;;;4.40;99.90;;;;;;4921285;29;20332;-76
2024/02/18 03:17:10;;;;;;;;;;;4.40;99.90;;;;;;4919319;29;19927;-76
2024/02/18 03:19:40;;;;;;;;;;;4.40;99.90;;;;;;4924198;29;19974;-77
2024/02/18 03:22:08;;;;;;;;;;;4.40;99.90;;;;;;4936488;29;19922;-75
2024/02/18 03:24:38;;;;;;;;;;;4.30;99.90;;;;;;4919963;29;20348;-75
2024/02/18 03:27:07;;;;;;;;;;;4.30;99.90;;;;;;4918310;29;20444;-75
2024/02/18 03:29:35;;;;;;;;;;;4.30;99.90;;;;;;4918290;29;19954;-75
2024/02/18 03:32:07;;;;;;;;;;;4.30;99.90;;;;;;4937416;29;20410;-75
2024/02/18 03:34:35;;;;;;;;;;;4.20;99.90;;;;;;4930309;29;19922;-75
2024/02/18 03:37:06;;;;;;;;;;;4.20;99.90;;;;;;4931496;29;19935;-76
2024/02/18 03:39:38;;;;;;;;;;;4.20;99.90;;;;;;4935571;29;20288;-76
2024/02/18 03:42:11;;;;;;;;;;;4.20;99.90;;;;;;4932647;29;20376;-75
2024/02/18 03:44:39;;;;;;;;;;;4.20;99.90;;;;;;4925064;29;19923;-75
2024/02/18 03:47:08;;;;;;;;;;;4.10;99.90;;;;;;4936008;29;19923;-75
2024/02/18 03:49:36;;;;;;;;;;;4.10;99.90;;;;;;4935246;29;19923;-76
2024/02/18 03:52:06;;;;;;;;;;;4.00;99.90;;;;;;4917621;29;20403;-76
2024/02/18 03:54:35;;;;;;;;;;;4.00;99.90;;;;;;4938132;29;19990;-76
2024/02/18 03:57:04;;;;;;;;;;;4.00;99.90;;;;;;4921605;29;19970;-76
2024/02/18 03:59:32;;;;;;;;;;;4.00;99.90;;;;;;4933795;29;20321;-76
2024/02/18 04:02:03;;;;;;;;;;;4.00;99.90;;;;;;4918702;29;19923;-76
2024/02/18 04:04:32;;;;;;;;;;;4.00;99.90;;;;;;4913100;29;19992;-76
2024/02/18 04:07:03;;;;;;;;;;;4.00;99.90;;;;;;4919346;29;19923;-76
2024/02/18 04:09:33;;;;;;;;;;;3.90;99.90;;;;;;4914690;29;19931;-76
2024/02/18 04:12:01;;;;;;;;;;;3.90;99.90;;;;;;4899030;29;19978;-75
2024/02/18 04:14:30;;;;;;;;;;;3.90;99.90;;;;;;4919702;29;20388;-76
2024/02/18 04:16:59;;;;;;;;;;;3.90;99.90;;;;;;4936423;29;19927;-75
2024/02/18 04:19:27;;;;;;;;;;;3.80;99.90;;;;;;4933404;29;19970;-76
2024/02/18 04:21:55;;;;;;;;;;;3.80;99.90;;;;;;4934637;29;19930;-76
2024/02/18 04:24:24;;;;;;;;;;;3.80;99.90;;;;;;4918447;29;19930;-77
2024/02/18 04:26:54;;;;;;;;;;;3.80;99.90;;;;;;4935155;29;19930;-76
2024/02/18 04:29:24;;;;;;;;;;;3.70;99.90;;;;;;4920649;29;19927;-75
2024/02/18 04:31:53;;;;;;;;;;;3.70;99.90;;;;;;4936176;29;20307;-75
2024/02/18 04:34:22;;;;;;;;;;;3.70;99.90;;;;;;4921143;29;19978;-75
2024/02/18 04:36:51;;;;;;;;;;;3.60;99.90;;;;;;4918854;29;20372;-75
2024/02/18 04:39:20;;;;;;;;;;;3.60;99.90;;;;;;4921186;29;19927;-76
2024/02/18 04:41:49;;;;;;;;;;;3.60;99.90;;;;;;4914070;29;19923;-75
2024/02/18 04:44:19;;;;;;;;;;;3.60;99.90;;;;;;4914470;29;19930;-75
2024/02/18 04:46:49;;;;;;;;;;;3.60;99.90;;;;;;4916600;29;20387;-75
2024/02/18 04:49:17;;;;;;;;;;;3.60;99.90;;;;;;4923351;29;19929;-75
2024/02/18 04:51:47;;;;;;;;;;;3.50;99.90;;;;;;4911956;29;19979;-75
2024/02/18 04:54:16;;;;;;;;;;;3.50;99.90;;;;;;4895300;29;19962;-75
2024/02/18 04:56:45;;;;;;;;;;;3.50;99.90;;;;;;4914390;29;19938;-75
2024/02/18 04:59:19;;;;;;;;;;;3.50;99.90;;;;;;4913165;29;20296;-76
2024/02/18 05:01:51;;;;;;;;;;;3.50;99.90;;;;;;4895210;29;20351;-76
2024/02/18 05:04:29;;;;;;;;;;;3.50;99.90;;;;;;4895986;29;19927;-76
2024/02/18 05:06:58;;;;;;;;;;;3.40;99.90;;;;;;4894526;29;19924;-76
2024/02/18 05:09:26;;;;;;;;;;;3.40;99.90;;;;;;4893974;29;19931;-75
2024/02/18 05:11:55;;;;;;;;;;;3.30;99.90;;;;;;4899462;29;20408;-76
2024/02/18 05:14:25;;;;;;;;;;;3.40;99.90;;;;;;4882204;29;19923;-76
2024/02/18 05:16:53;;;;;;;;;;;3.40;99.90;;;;;;4877060;29;19927;-76
2024/02/18 05:19:21;;;;;;;;;;;3.50;99.90;;;;;;4896413;29;19923;-76
2024/02/18 05:21:49;;;;;;;;;;;3.40;99.90;;;;;;4865822;29;20015;-76
2024/02/18 05:24:18;;;;;;;;;;;3.40;99.90;;;;;;4868594;29;19930;-76
2024/02/18 05:26:47;;;;;;;;;;;3.40;99.90;;;;;;4865130;29;19995;-76
2024/02/18 05:29:15;;;;;;;;;;;3.40;99.90;;;;;;4876766;29;19963;-76
2024/02/18 05:31:45;;;;;;;;;;;3.40;99.90;;;;;;4866474;29;19924;-77
2024/02/18 05:34:22;;;;;;;;;;;3.40;99.90;;;;;;4865421;29;19930;-76
2024/02/18 05:36:50;;;;;;;;;;;3.40;99.90;;;;;;4881843;29;20035;-77
2024/02/18 05:39:19;;;;;;;;;;;3.30;99.90;;;;;;4861650;29;20507;-76
2024/02/18 05:41:48;;;;;;;;;;;3.40;99.90;;;;;;4861354;29;19962;-76
2024/02/18 05:44:17;;;;;;;;;;;3.30;99.90;;;;;;4881941;29;19924;-76
2024/02/18 05:46:49;;;;;;;;;;;3.30;99.90;;;;;;4864804;29;20417;-76
2024/02/18 05:49:17;;;;;;;;;;;3.30;99.90;;;;;;4862605;29;19931;-76
2024/02/18 05:51:53;;;;;;;;;;;3.30;99.90;;;;;;4861147;29;20393;-77
2024/02/18 05:54:23;;;;;;;;;;;3.30;99.90;;;;;;4906148;29;20051;-76
2024/02/18 05:56:51;;;;;;;;;;;3.30;99.90;;;;;;4916948;29;20438;-76
2024/02/18 05:59:22;;;;;;;;;;;3.20;99.90;;;;;;4903643;29;19927;-76
2024/02/18 06:01:52;;;;;;;;;;;3.30;99.90;;;;;;4933536;29;19923;-76
2024/02/18 06:04:20;;;;;;;;;;;3.30;99.90;;;;;;4934476;29;19923;-76
2024/02/18 06:06:49;;;;;;;;;;;3.20;99.90;;;;;;4936591;29;20253;-76
2024/02/18 06:09:17;;;;;;;;;;;3.20;99.90;;;;;;4923572;29;19978;-76
2024/02/18 06:11:46;;;;;;;;;;;3.20;99.90;;;;;;4940323;29;19922;-77
2024/02/18 06:14:16;;;;;;;;;;;3.20;99.90;;;;;;4933710;29;19962;-76
2024/02/18 06:16:45;;;;;;;;;;;3.20;99.90;;;;;;4931055;29;20059;-73
2024/02/18 06:19:17;;;;;;;;;;;3.30;99.90;;;;;;4918264;29;19934;-76
2024/02/18 06:21:49;;;;;;;;;;;3.30;99.90;;;;;;4939868;29;19922;-77
2024/02/18 06:24:18;;;;;;;;;;;3.20;99.90;;;;;;4921008;29;20381;-77
2024/02/18 06:26:55;;;;;;;;;;;3.30;99.90;;;;;;4934816;29;19923;-76
2024/02/18 06:29:23;;;;;;;;;;;3.30;99.90;;;;;;4934323;29;19954;-76
2024/02/18 06:31:54;;;;;;;;;;;4.40;99.90;;;;;;4921440;29;19923;-76
2024/02/18 06:34:27;;;;;;;;;;;3.40;99.90;;;;;;4940985;29;19923;-77
2024/02/18 06:36:55;;;;;;;;;;;3.50;99.90;;;;;;4931949;29;19929;-76
2024/02/18 06:39:26;;;;;;;;;;;3.60;99.90;;;;;;4926614;29;19946;-77
2024/02/18 06:41:55;;;;;;;;;;;3.60;99.90;;;;;;4939224;29;19969;-76
2024/02/18 06:44:25;;;;;;;;;;;3.70;99.90;;;;;;4933597;29;20372;-76
2024/02/18 06:46:54;;;;;;;;;;;3.70;99.90;;;;;;4939247;29;19954;-76
2024/02/18 06:49:22;;;;;;;;;;;3.80;99.90;;;;;;4923187;29;19930;-76
2024/02/18 06:52:01;;;;;;;;;;;3.90;99.90;;;;;;4896681;29;19933;-76
2024/02/18 06:54:30;;;;;;;;;;;3.90;99.90;;;;;;4891813;29;19926;-77
2024/02/18 06:56:58;;;;;;;;;;;4.00;99.90;;;;;;4880572;29;19927;-75
2024/02/18 06:59:29;;;;;;;;;;;4.10;99.90;;;;;;4936979;29;19927;-75
2024/02/18 07:01:57;;;;;;;;;;;4.00;99.90;;;;;;4924598;29;19930;-77
2024/02/18 07:04:25;;;;;;;;;;;4.00;99.90;;;;;;4936368;29;20398;-76
2024/02/18 07:06:54;;;;;;;;;;;4.10;99.90;;;;;;4935945;29;19923;-76
2024/02/18 07:09:24;;;;;;;;;;;4.10;99.90;;;;;;4913461;29;19965;-76
2024/02/18 07:11:56;;;;;;;;;;;4.10;99.90;;;;;;4921825;29;19978;-77
2024/02/18 07:14:25;;;;;;;;;;;4.10;99.90;;;;;;4922681;29;19923;-77
2024/02/18 07:16:53;;;;;;;;;;;4.10;99.90;;;;;;4920939;29;20390;-77
2024/02/18 07:19:22;;;;;;;;;;;4.10;99.90;;;;;;4920360;29;19931;-76
2024/02/18 07:21:51;;;;;;;;;;;4.20;99.90;;;;;;4929708;29;19974;-76
2024/02/18 07:24:20;;;;;;;;;;;4.40;99.90;;;;;;4916278;29;19927;-77
2024/02/18 07:26:53;;;;;;;;;;;4.60;99.90;;;;;;4919987;29;20862;-77
2024/02/18 07:29:21;;;;;;;;;;;4.70;99.90;;;;;;4916858;29;19931;-76
2024/02/18 07:31:49;;;;;;;;;;;4.80;99.90;;;;;;4916310;29;19986;-76
2024/02/18 07:34:18;;;;;;;;;;;5.00;99.90;;;;;;4918638;29;19922;-76
2024/02/18 07:36:48;;;;;;;;;;;5.10;99.90;;;;;;4917079;29;19923;-76
2024/02/18 07:39:16;;;;;;;;;;;5.20;99.90;;;;;;4929694;29;19923;-77
2024/02/18 07:41:44;;;;;;;;;;;5.40;99.90;;;;;;4917438;29;20288;-77
2024/02/18 07:44:14;;;;;;;;;;;5.50;99.90;;;;;;4919004;29;20082;-78
2024/02/18 07:46:42;;;;;;;;;;;5.60;99.90;;;;;;4931654;29;19923;-77
2024/02/18 07:49:13;;;;;;;;;;;5.80;99.90;;;;;;4935611;29;20019;-77
2024/02/18 07:51:41;;;;;;;;;;;5.90;99.90;;;;;;4932370;29;19931;-78
2024/02/18 07:54:10;;;;;;;;;;;6.10;99.90;;;;;;4929575;29;20113;-78
2024/02/18 07:56:43;;;;;;;;;;;6.10;99.90;;;;;;4932413;29;19954;-77
2024/02/18 07:59:11;;;;;;;;;;;6.30;99.90;;;;;;4914064;29;19927;-77
2024/02/18 08:01:43;;;;;;;;;;;6.30;99.90;;;;;;4933756;29;19938;-77
2024/02/18 08:04:11;;;;;;;;;;;6.40;99.90;;;;;;4919003;29;21839;-78
2024/02/18 08:06:40;;;;;;;;;;;6.50;99.90;;;;;;4919532;29;19997;-77
2024/02/18 08:09:12;;;;;;;;;;;6.70;99.90;;;;;;4937458;29;19931;-78
2024/02/18 08:11:40;;;;;;;;;;;6.90;99.90;;;;;;4938290;29;19970;-77
2024/02/18 08:14:08;;;;;;;;;;;7.00;99.90;;;;;;4935441;29;19923;-77
2024/02/18 08:16:36;;;;;;;;;;;7.10;99.90;;;;;;4915972;29;23062;-77
2024/02/18 08:19:06;;;;;;;;;;;7.20;99.90;;;;;;4916010;29;20416;-77
2024/02/18 08:21:35;;;;;;;;;;;7.30;99.90;;;;;;4917118;29;19927;-77
2024/02/18 08:24:03;;;;;;;;;;;7.50;99.90;;;;;;4910807;29;19931;-77
2024/02/18 08:26:32;;;;;;;;;;;7.60;99.90;;;;;;4937705;29;20442;-77
2024/02/18 08:29:00;;;;;;;;;;;7.80;99.90;;;;;;4919371;29;19923;-77
2024/02/18 08:31:28;;;;;;;;;;;7.90;99.90;;;;;;4922504;29;20447;-78
2024/02/18 08:33:57;;;;;;;;;;;8.00;99.90;;;;;;4916243;29;19965;-78
2024/02/18 08:36:27;;;;;;;;;;;8.10;99.90;;;;;;4933409;29;20013;-76
2024/02/18 08:38:55;;;;;;;;;;;8.20;99.90;;;;;;4917456;29;19931;-77
2024/02/18 08:41:25;;;;;;;;;;;8.30;99.90;;;;;;4929942;29;19931;-76
2024/02/18 08:43:53;;;;;;;;;;;8.40;99.90;;;;;;4915489;29;19969;-77
2024/02/18 08:46:23;;;;;;;;;;;8.60;99.90;;;;;;4913211;29;19930;-78
2024/02/18 08:48:51;;;;;;;;;;;8.80;99.90;;;;;;4926309;29;19927;-76
2024/02/18 08:51:20;;;;;;;;;;;8.80;99.90;;;;;;4922306;29;20014;-77
2024/02/18 08:53:49;;;;;;;;;;;8.80;99.90;;;;;;4922748;29;19930;-76
2024/02/18 08:56:18;;;;;;;;;;;8.90;99.90;;;;;;4912746;29;20337;-76
2024/02/18 08:58:46;;;;;;;;;;;9.00;99.90;;;;;;4927675;29;19923;-76
2024/02/18 09:01:15;;;;;;;;;;;8.80;99.90;;;;;;4912450;29;19927;-81
2024/02/18 09:03:43;;;;;;;;;;;8.90;99.90;;;;;;4926754;29;19972;-77
2024/02/18 09:06:12;;;;;;;;;;;8.80;99.90;;;;;;4926215;29;19930;-78
2024/02/18 09:08:41;;;;;;;;;;;8.80;99.90;;;;;;4926749;29;19950;-76
2024/02/18 09:11:11;;;;;;;;;;;8.80;99.90;;;;;;4923151;29;19923;-78
2024/02/18 09:13:40;;;;;;;;;;;8.90;99.90;;;;;;4911501;29;20423;-79
2024/02/18 09:16:08;;;;;;;;;;;8.90;99.90;;;;;;4906885;29;19926;-79
2024/02/18 09:18:37;;;;;;;;;;;9.00;99.90;;;;;;4907353;29;20328;-76
2024/02/18 09:21:06;;;;;;;;;;;9.00;99.90;;;;;;4924348;29;19966;-77
2024/02/18 09:23:35;;;;;;;;;;;8.90;99.90;;;;;;4914601;29;19935;-76
2024/02/18 09:26:03;;;;;;;;;;;9.00;99.90;;;;;;4922705;29;20453;-78
2024/02/18 09:28:33;;;;;;;;;;;9.10;99.90;;;;;;4923930;29;19937;-77
2024/02/18 09:31:04;;;;;;;;;;;9.40;99.90;;;;;;4924072;29;20003;-77
2024/02/18 09:33:33;;;;;;;;;;;9.70;99.90;;;;;;4910730;29;19923;-78
2024/02/18 09:36:02;;;;;;;;;;;9.60;99.90;;;;;;4924882;29;20454;-77
2024/02/18 09:38:30;;;;;;;;;;;9.60;99.90;;;;;;4924236;29;19933;-77
2024/02/18 09:40:59;;;;;;;;;;;9.60;99.90;;;;;;4927546;29;20376;-78
2024/02/18 09:43:30;;;;;;;;;;;9.70;99.90;;;;;;4927933;29;19957;-78
2024/02/18 09:46:00;;;;;;;;;;;9.90;99.90;;;;;;4908436;29;19930;-81
2024/02/18 09:48:29;;;;;;;;;;;10.20;99.90;;;;;;4924578;29;20016;-76
2024/02/18 09:50:58;;;;;;;;;;;10.20;99.90;;;;;;4905982;29;19923;-77
2024/02/18 09:53:26;;;;;;;;;;;10.10;99.90;;;;;;4907826;29;19927;-85
2024/02/18 09:55:54;;;;;;;;;;;10.10;99.90;;;;;;4909893;29;19981;-76
2024/02/18 09:58:22;;;;;;;;;;;10.00;99.90;;;;;;4928447;29;20782;-76
2024/02/18 10:00:51;;;;;;;;;;;10.00;99.90;;;;;;4925025;29;20392;-80
2024/02/18 10:03:21;;;;;;;;;;;10.20;99.90;;;;;;4925581;29;20030;-76
2024/02/18 10:05:49;;;;;;;;;;;10.20;99.90;;;;;;4908203;29;19926;-84
2024/02/18 10:08:17;;;;;;;;;;;10.10;99.90;;;;;;4911208;29;19923;-77
2024/02/18 10:10:46;;;;;;;;;;;10.00;99.90;;;;;;4912845;29;19929;-77
2024/02/18 10:13:15;;;;;;;;;;;10.00;99.90;;;;;;4930050;29;19923;-77
2024/02/18 10:15:43;;;;;;;;;;;10.10;99.90;;;;;;4916114;29;20025;-79
2024/02/18 10:18:13;;;;;;;;;;;10.00;99.90;;;;;;4931963;29;20832;-77
2024/02/18 10:20:44;;;;;;;;;;;10.20;99.90;;;;;;4912147;29;19930;-77
2024/02/18 10:23:12;;;;;;;;;;;10.30;99.90;;;;;;4912865;29;19927;-78
2024/02/18 10:25:40;;;;;;;;;;;10.40;99.90;;;;;;4929947;29;19923;-77
2024/02/18 10:28:08;;;;;;;;;;;10.30;99.90;;;;;;4930473;29;20380;-77
2024/02/18 10:30:38;;;;;;;;;;;10.30;99.90;;;;;;4926455;29;19934;-81
2024/02/18 10:33:08;;;;;;;;;;;10.60;99.90;;;;;;4928480;29;20313;-76
2024/02/18 10:35:36;;;;;;;;;;;11.00;99.90;;;;;;4927869;29;19922;-76
2024/02/18 10:38:08;;;;;;;;;;;11.00;99.90;;;;;;4925652;29;20344;-78
2024/02/18 10:40:39;;;;;;;;;;;11.00;99.90;;;;;;4930780;29;20056;-81
2024/02/18 10:43:10;;;;;;;;;;;11.00;99.90;;;;;;4929354;29;19922;-77
2024/02/18 10:45:40;;;;;;;;;;;10.70;99.90;;;;;;4933025;29;19929;-76
2024/02/18 10:48:11;;;;;;;;;;;10.70;99.90;;;;;;4913366;29;19958;-77
2024/02/18 10:50:40;;;;;;;;;;;10.50;99.90;;;;;;4918918;29;19923;-78
2024/02/18 10:53:16;;;;;;;;;;;10.50;99.90;;;;;;4928738;29;20437;-77
2024/02/18 10:55:46;;;;;;;;;;;10.50;99.90;;;;;;4923732;29;19927;-79
2024/02/18 10:58:16;;;;;;;;;;;10.40;99.90;;;;;;4928093;29;20622;-75
2024/02/18 11:00:46;;;;;;;;;;;10.40;99.90;;;;;;4910743;29;19927;-77
2024/02/18 11:03:20;;;;;;;;;;;10.40;99.90;;;;;;4929454;29;19930;-78
2024/02/18 11:05:50;;;;;;;;;;;10.50;99.90;;;;;;4929575;29;19922;-77
2024/02/18 11:08:20;;;;;;;;;;;10.60;99.90;;;;;;4912440;29;20381;-76
2024/02/18 11:10:49;;;;;;;;;;;10.60;99.90;;;;;;4931480;29;19929;-77
2024/02/18 11:13:18;;;;;;;;;;;10.60;99.90;;;;;;4929051;29;19930;-76
2024/02/18 11:15:46;;;;;;;;;;;10.70;99.90;;;;;;4915619;29;19923;-76
2024/02/18 11:18:15;;;;;;;;;;;10.60;99.90;;;;;;4912972;29;20316;-76
2024/02/18 11:20:43;;;;;;;;;;;10.60;99.90;;;;;;4926552;29;19923;-82
2024/02/18 11:23:11;;;;;;;;;;;10.50;99.90;;;;;;4928904;29;20049;-79
2024/02/18 11:25:42;;;;;;;;;;;10.50;99.90;;;;;;4925924;29;19939;-76
2024/02/18 11:28:10;;;;;;;;;;;10.50;99.90;;;;;;4927687;29;19927;-76
2024/02/18 11:30:39;;;;;;;;;;;10.50;99.90;;;;;;4912188;29;20786;-76
2024/02/18 11:33:07;;;;;;;;;;;10.50;99.90;;;;;;4927627;29;20388;-76
2024/02/18 11:35:35;;;;;;;;;;;10.50;99.90;;;;;;4926278;29;19929;-78
2024/02/18 11:38:04;;;;;;;;;;;10.50;99.90;;;;;;4924456;29;19986;-75
2024/02/18 11:40:35;;;;;;;;;;;10.60;99.90;;;;;;4924560;29;20048;-75
2024/02/18 11:43:09;;;;;;;;;;;10.60;99.90;;;;;;4919492;29;19958;-75
2024/02/18 11:45:44;;;;;;;;;;;10.60;99.90;;;;;;4922763;29;19957;-74
2024/02/18 11:48:12;;;;;;;;;;;10.70;99.90;;;;;;4909832;29;20499;-76
2024/02/18 11:50:40;;;;;;;;;;;10.70;99.90;;;;;;4921410;29;19930;-75
2024/02/18 11:53:09;;;;;;;;;;;10.70;99.90;;;;;;4914123;29;19998;-75
2024/02/18 11:55:37;;;;;;;;;;;10.70;99.90;;;;;;4927900;29;20371;-77
2024/02/18 11:58:07;;;;;;;;;;;10.70;99.90;;;;;;4927731;29;19922;-74
2024/02/18 12:00:36;;;;;;;;;;;10.70;99.90;;;;;;4909675;29;19930;-75
2024/02/18 12:03:04;;;;;;;;;;;10.80;99.90;;;;;;4913129;29;20344;-75
2024/02/18 12:05:32;;;;;;;;;;;10.80;99.90;;;;;;4911341;29;20445;-75
2024/02/18 12:08:03;;;;;;;;;;;10.90;99.90;;;;;;4911474;29;19923;-79
2024/02/18 12:10:33;;;;;;;;;;;10.90;99.90;;;;;;4921908;29;19923;-79
2024/02/18 12:13:06;;;;;;;;;;;11.00;99.90;;;;;;4920959;29;20352;-75
2024/02/18 12:15:36;;;;;;;;;;;11.00;99.90;;;;;;4922082;29;19930;-75
2024/02/18 12:18:05;;;;;;;;;;;11.10;99.90;;;;;;4905705;29;20523;-75
2024/02/18 12:20:34;;;;;;;;;;;11.00;99.90;;;;;;4922932;29;19930;-75
2024/02/18 12:23:04;;;;;;;;;;;11.10;99.90;;;;;;4924529;29;20319;-74
2024/02/18 12:25:36;;;;;;;;;;;11.00;99.90;;;;;;4914951;29;19927;-75
2024/02/18 12:28:05;;;;;;;;;;;11.00;99.90;;;;;;4918975;29;20363;-77
2024/02/18 12:30:33;;;;;;;;;;;11.00;99.90;;;;;;4926266;29;20000;-84
2024/02/18 12:33:03;;;;;;;;;;;10.90;99.90;;;;;;4905896;29;19993;-75
2024/02/18 12:35:32;;;;;;;;;;;10.90;99.90;;;;;;4921426;29;19938;-76
2024/02/18 12:38:02;;;;;;;;;;;11.00;99.90;;;;;;4927568;29;19990;-75
2024/02/18 12:40:30;;;;;;;;;;;11.20;99.90;;;;;;4922127;29;20522;-76
2024/02/18 12:42:58;;;;;;;;;;;11.20;99.90;;;;;;4923381;29;20498;-75
2024/02/18 12:45:46;;;;;;;;;;;11.30;99.90;;;;;;4923741;29;20303;-74
2024/02/18 12:48:25;;;;;;;;;;;11.30;99.90;;;;;;4912776;29;19929;-75
2024/02/18 12:51:08;;;;;;;;;;;11.30;99.90;;;;;;4930465;29;20368;-76
2024/02/18 12:53:36;;;;;;;;;;;11.30;99.90;;;;;;4925599;29;19929;-75
2024/02/18 12:56:05;;;;;;;;;;;11.30;99.90;;;;;;4926167;29;19923;-74
2024/02/18 12:58:35;;;;;;;;;;;11.40;99.90;;;;;;4908615;29;19927;-75
2024/02/18 13:01:04;;;;;;;;;;;11.40;99.90;;;;;;4926466;29;20017;-75
2024/02/18 13:03:35;;;;;;;;;;;11.30;99.90;;;;;;4926394;29;20320;-74
2024/02/18 13:06:04;;;;;;;;;;;11.30;99.90;;;;;;4921940;29;20389;-75
2024/02/18 13:08:33;;;;;;;;;;;11.30;99.90;;;;;;4911293;29;19982;-74
2024/02/18 13:11:01;;;;;;;;;;;11.30;99.90;;;;;;4926810;29;20001;-76
2024/02/18 13:13:30;;;;;;;;;;;11.50;99.90;;;;;;4909028;29;20396;-75
2024/02/18 13:15:58;;;;;;;;;;;11.60;99.90;;;;;;4909034;29;19931;-74
2024/02/18 13:18:26;;;;;;;;;;;11.70;99.90;;;;;;4927000;29;19927;-75
2024/02/18 13:20:56;;;;;;;;;;;11.70;99.90;;;;;;4909220;29;20299;-74
2024/02/18 13:23:24;;;;;;;;;;;11.70;99.90;;;;;;4923017;29;19958;-75
2024/02/18 13:25:53;;;;;;;;;;;11.80;99.90;;;;;;4911050;29;19931;-74
2024/02/18 13:28:21;;;;;;;;;;;11.80;99.90;;;;;;4908130;29;20295;-76
2024/02/18 13:30:50;;;;;;;;;;;11.80;99.90;;;;;;4909188;29;20029;-74
2024/02/18 13:33:20;;;;;;;;;;;11.70;99.90;;;;;;4903747;29;19935;-75
2024/02/18 13:35:49;;;;;;;;;;;11.70;99.90;;;;;;4908646;29;19929;-75
2024/02/18 13:38:18;;;;;;;;;;;11.60;99.90;;;;;;4909078;29;19922;-75
2024/02/18 13:40:48;;;;;;;;;;;11.30;99.90;;;;;;4925653;29;19931;-75
2024/02/18 13:43:17;;;;;;;;;;;11.20;99.90;;;;;;4927191;29;20053;-75
2024/02/18 13:45:46;;;;;;;;;;;11.00;99.90;;;;;;4926276;29;19922;-75
2024/02/18 13:48:14;;;;;;;;;;;11.00;99.90;;;;;;4926383;29;19949;-75
2024/02/18 13:50:43;;;;;;;;;;;10.90;99.90;;;;;;4929877;29;19937;-74
2024/02/18 13:53:11;;;;;;;;;;;10.80;99.90;;;;;;4927597;29;19967;-77
2024/02/18 13:55:40;;;;;;;;;;;10.70;99.90;;;;;;4918048;29;20025;-76
2024/02/18 13:58:09;;;;;;;;;;;10.60;99.90;;;;;;4913528;29;19934;-74
2024/02/18 14:00:37;;;;;;;;;;;10.50;99.90;;;;;;4930352;29;20345;-74
2024/02/18 14:03:06;;;;;;;;;;;10.40;99.90;;;;;;4929471;29;19985;-74
2024/02/18 14:05:34;;;;;;;;;;;10.30;99.90;;;;;;4910904;29;19930;-73
2024/02/18 14:08:02;;;;;;;;;;;10.40;99.90;;;;;;4928010;29;19955;-74
2024/02/18 14:10:31;;;;;;;;;;;10.40;99.90;;;;;;4930348;29;19922;-76
2024/02/18 14:13:00;;;;;;;;;;;10.50;99.90;;;;;;4912927;29;19930;-77
2024/02/18 14:15:30;;;;;;;;;;;10.40;99.90;;;;;;4929973;29;20005;-78
2024/02/18 14:18:00;;;;;;;;;;;10.40;99.90;;;;;;4914466;29;19954;-76
2024/02/18 14:20:28;;;;;;;;;;;10.40;99.90;;;;;;4927947;29;19923;-74
2024/02/18 14:22:56;;;;;;;;;;;10.30;99.90;;;;;;4911115;29;20517;-76
2024/02/18 14:25:24;;;;;;;;;;;10.30;99.90;;;;;;4912124;29;19950;-78
2024/02/18 14:27:53;;;;;;;;;;;10.30;99.90;;;;;;4910790;29;19933;-73
2024/02/18 14:30:22;;;;;;;;;;;10.30;99.90;;;;;;4925066;29;20387;-74
2024/02/18 14:32:50;;;;;;;;;;;10.30;99.90;;;;;;4925126;29;19923;-74
2024/02/18 14:35:20;;;;;;;;;;;10.30;99.90;;;;;;4927070;29;20010;-74
2024/02/18 14:37:49;;;;;;;;;;;10.30;99.90;;;;;;4923547;29;20009;-75
2024/02/18 14:40:17;;;;;;;;;;;10.20;99.90;;;;;;4925038;29;20010;-74